Latest Weather Observations for Mt Seldom Seen

IDV60801

Issued at 12:02 am EDT Sunday 26 February 2017 (issued every 30 minutes, with the page automatically refreshed every 10 minutes)

About weather observations | Map of weather stations | Latest weather observations for VIC | Other Formats
Station Details ID: 250030 Name: VICTORIAN PORTABLE J Lat: -37.10 Lon: 148.19 Height: 1344.0 m
Data from the previous 72 hours. | See also: Recent months for locations in Victoria
Date/Time
EDT
Temp
°C
App
Temp
°C
Dew
Point
°C
Rel
Hum
%
Delta-T
°C
Wind Press
QNH
hPa
Press
MSL
hPa
Rain since
9am
mm
Dir  Spd
km/h
Gust
km/h
Spd
kts
Gust
kts
25/11:50pm 8.7 5.7 7.9 95 0.4 E 13 26 7 14 - - 0.0
25/11:40pm 9.0 6.9 8.1 94 0.5 ENE 9 20 5 11 - - 0.0
25/11:30pm 9.0 6.1 8.2 95 0.4 ENE 13 20 7 11 - - 0.0
25/11:20pm 9.1 6.2 8.2 94 0.5 ENE 13 22 7 12 - - 0.0
25/11:10pm 9.1 6.2 8.2 94 0.5 ENE 13 26 7 14 - - 0.0
25/11:00pm 9.1 5.5 8.2 94 0.5 ENE 17 26 9 14 - - 0.0
25/10:50pm 9.1 5.5 8.2 94 0.5 ENE 17 26 9 14 - - 0.0
25/10:40pm 9.2 6.0 8.3 94 0.5 ENE 15 24 8 13 - - 0.0
25/10:30pm 9.3 6.1 8.4 94 0.5 ENE 15 24 8 13 - - 0.0
25/10:20pm 9.3 5.7 8.3 93 0.5 ENE 17 32 9 17 - - 0.0
25/10:10pm 9.3 5.7 8.4 94 0.5 ENE 17 26 9 14 - - 0.0
25/10:00pm 9.4 5.8 8.4 93 0.5 E 17 30 9 16 - - 0.0
25/09:50pm 9.4 5.4 8.4 93 0.5 E 19 28 10 15 - - 0.0
25/09:40pm 9.5 5.5 8.4 93 0.6 E 19 32 10 17 - - 0.0
25/09:30pm 9.6 5.5 8.5 93 0.6 E 20 32 11 17 - - 0.0
25/09:20pm 9.7 6.2 8.6 93 0.6 E 17 30 9 16 - - 0.0
25/09:10pm 9.8 6.6 8.6 92 0.6 E 15 22 8 12 - - 0.0
25/09:00pm 9.8 6.2 8.5 92 0.7 E 17 26 9 14 - - 0.0
25/08:50pm 9.8 6.2 8.5 92 0.7 E 17 26 9 14 - - 0.0
25/08:40pm 9.9 6.3 8.5 91 0.7 E 17 26 9 14 - - 0.0
25/08:30pm 10.0 6.8 8.4 90 0.8 E 15 24 8 13 - - 0.0
25/08:20pm 10.0 6.4 8.2 88 0.9 E 17 28 9 15 - - 0.0
25/08:10pm 10.1 6.1 8.1 87 1.0 E 19 28 10 15 - - 0.0
25/08:00pm 10.1 5.5 8.1 87 1.0 E 22 35 12 19 - - 0.0
25/07:50pm 10.2 4.8 8.2 87 1.0 E 26 35 14 19 - - 0.0
25/07:40pm 10.3 4.5 8.0 86 1.2 E 28 39 15 21 - - 0.0
25/07:30pm 10.3 4.5 8.0 86 1.2 E 28 37 15 20 - - 0.0
25/07:20pm 10.3 4.9 7.9 85 1.3 E 26 37 14 20 - - 0.0
25/07:10pm 10.5 5.4 7.8 83 1.4 E 24 35 13 19 - - 0.0
25/07:00pm 10.6 5.2 7.8 83 1.5 E 26 35 14 19 - - 0.0
25/06:50pm 11.0 6.9 8.0 82 1.6 E 19 30 10 16 - - 0.0
25/06:40pm 11.1 7.0 7.8 80 1.7 E 19 30 10 16 - - 0.0
25/06:30pm 11.2 7.4 7.7 79 1.8 E 17 30 9 16 - - 0.0
25/06:20pm 11.5 8.1 7.5 76 2.1 E 15 28 8 15 - - 0.0
25/06:10pm 11.7 8.7 7.5 75 2.2 E 13 26 7 14 - - 0.0
25/06:00pm 12.1 9.8 7.3 72 2.5 E 9 19 5 10 - - 0.0
25/05:50pm 12.3 10.4 7.4 72 2.6 E 7 15 4 8 - - 0.0
25/05:40pm 12.5 10.5 7.3 70 2.7 E 7 13 4 7 - - 0.0
25/05:30pm 12.5 10.7 7.2 70 2.8 E 6 13 3 7 - - 0.0
25/05:20pm 12.2 10.2 7.1 71 2.6 E 7 15 4 8 - - 0.0
25/05:10pm 12.3 10.3 7.2 71 2.7 E 7 13 4 7 - - 0.0
25/05:00pm 12.1 9.3 7.0 71 2.6 E 11 19 6 10 - - 0.0
25/04:50pm 12.3 10.3 7.1 70 2.7 E 7 19 4 10 - - 0.0
25/04:40pm 12.2 9.8 6.9 70 2.7 E 9 17 5 9 - - 0.0
25/04:30pm 12.3 9.9 6.9 69 2.8 E 9 22 5 12 - - 0.0
25/04:20pm 12.1 9.3 6.9 70 2.7 E 11 19 6 10 - - 0.0
25/04:10pm 12.1 9.6 6.6 69 2.8 E 9 19 5 10 - - 0.0
25/04:00pm 12.6 10.6 7.0 68 2.9 E 7 19 4 10 - - 0.0
25/03:50pm 12.4 10.0 6.8 68 2.9 ENE 9 15 5 8 - - 0.0
25/03:40pm 12.3 9.8 6.7 68 2.9 E 9 19 5 10 - - 0.0
25/03:30pm 12.4 10.0 7.0 69 2.8 E 9 19 5 10 - - 0.0
25/03:20pm 12.8 10.8 7.2 69 2.9 ENE 7 19 4 10 - - 0.0
25/03:10pm 12.4 10.0 6.8 68 2.9 NE 9 20 5 11 - - 0.0
25/03:00pm 13.1 10.7 7.0 66 3.2 NE 9 20 5 11 - - 0.0
25/02:50pm 13.1 9.9 6.9 66 3.2 NE 13 22 7 12 - - 0.0
25/02:40pm 12.7 10.2 6.7 67 3.1 E 9 20 5 11 - - 0.0
25/02:30pm 13.0 10.6 7.1 67 3.1 NE 9 24 5 13 - - 0.0
25/02:20pm 12.3 9.4 6.5 67 3.0 NE 11 20 6 11 - - 0.0
25/02:10pm 12.9 10.5 6.9 67 3.1 NE 9 19 5 10 - - 0.0
25/02:00pm 12.5 9.6 6.7 68 3.0 ENE 11 22 6 12 - - 0.0
25/01:50pm 12.3 9.5 6.9 69 2.8 ENE 11 20 6 11 - - 0.0
25/01:40pm 12.2 9.5 7.2 71 2.6 E 11 20 6 11 - - 0.0
25/01:30pm 13.3 10.7 7.9 70 2.9 ENE 11 22 6 12 - - 0.0
25/01:20pm 12.3 9.3 7.9 74 2.3 ENE 13 24 7 13 - - 0.0
25/01:10pm 12.5 10.3 8.0 74 2.4 NE 9 22 5 12 - - 0.0
25/01:00pm 11.9 9.4 8.1 77 2.0 NE 11 20 6 11 - - 0.0
25/12:50pm 10.6 7.5 7.3 80 1.7 ENE 13 24 7 13 - - 0.0
25/12:40pm 10.8 8.6 7.9 82 1.5 NE 9 20 5 11 - - 0.0
25/12:30pm 11.6 9.3 9.0 84 1.4 NE 11 22 6 12 - - 0.0
25/12:20pm 10.5 8.0 8.1 85 1.3 ENE 11 22 6 12 - - 0.0
25/12:10pm 10.2 7.7 8.1 87 1.1 ENE 11 20 6 11 - - 0.0
25/12:00pm 10.0 7.6 8.8 92 0.6 NE 11 19 6 10 - - 0.0
25/11:40am 8.8 6.6 7.9 94 0.5 ENE 9 19 5 10 - - 0.0
25/11:30am 8.4 5.4 7.6 95 0.4 ENE 13 20 7 11 - - 0.0
25/11:20am 8.3 5.7 7.7 96 0.3 ENE 11 20 6 11 - - 0.0
25/11:10am 8.0 5.3 7.5 97 0.3 ENE 11 22 6 12 - - 0.0
25/11:00am 7.4 4.2 6.7 95 0.3 ENE 13 24 7 13 - - 0.0
25/10:50am 7.2 4.3 6.5 95 0.3 E 11 22 6 12 - - 0.0
25/10:40am 6.7 4.1 6.1 96 0.3 E 9 20 5 11 - - 0.0
25/10:30am 6.7 4.1 6.1 96 0.3 ENE 9 13 5 7 - - 0.0
25/10:20am 6.4 3.7 5.7 95 0.3 ENE 9 15 5 8 - - 0.0
25/10:10am 6.6 4.3 5.8 95 0.4 ENE 7 11 4 6 - - 0.0
25/10:00am 6.2 3.8 5.4 95 0.4 E 7 11 4 6 - - 0.0
25/09:50am 6.2 3.9 5.6 96 0.3 E 7 11 4 6 - - 0.0
25/09:40am 5.9 3.5 5.3 96 0.3 E 7 11 4 6 - - 0.0
25/09:30am 5.7 3.3 5.1 96 0.3 E 7 11 4 6 - - 0.0
25/09:20am 5.6 3.1 4.9 95 0.3 E 7 11 4 6 - - 0.0
25/09:10am 5.7 3.2 4.9 95 0.4 E 7 13 4 7 - - 0.0
25/09:00am 5.5 2.6 4.9 96 0.3 E 9 13 5 7 - - 0.2
25/08:50am 5.4 2.5 4.7 95 0.3 E 9 13 5 7 - - 0.2
25/08:40am 5.3 2.8 4.6 95 0.3 E 7 11 4 6 - - 0.2
25/08:30am 5.2 2.7 4.5 95 0.3 E 7 13 4 7 - - 0.2
25/08:20am 5.3 2.8 4.5 95 0.4 E 7 13 4 7 - - 0.2
25/08:10am 5.1 2.2 4.4 95 0.3 ENE 9 15 5 8 - - 0.2
25/08:00am 5.1 2.5 4.4 95 0.3 E 7 13 4 7 - - 0.2
25/07:50am 4.8 1.8 4.1 95 0.3 E 9 15 5 8 - - 0.2
25/07:40am 4.8 1.8 4.2 96 0.3 ESE 9 15 5 8 - - 0.2
25/07:30am 4.8 1.8 4.1 95 0.3 ESE 9 15 5 8 - - 0.2
25/07:20am 4.8 1.8 4.1 95 0.3 ESE 9 15 5 8 - - 0.2
25/07:10am 4.7 1.3 4.1 96 0.3 SE 11 17 6 9 - - 0.2
25/07:00am 4.6 1.6 3.9 95 0.3 SE 9 17 5 9 - - 0.2
25/06:50am 4.5 1.5 3.9 96 0.3 SE 9 17 5 9 - - 0.2
25/06:40am 4.5 1.5 3.9 96 0.3 SE 9 17 5 9 - - 0.2
25/06:30am 4.5 1.5 3.9 96 0.3 SE 9 15 5 8 - - 0.2
25/06:20am 4.6 2.0 4.0 96 0.3 SE 7 15 4 8 - - 0.2
25/06:10am 4.7 2.1 4.0 95 0.3 SSE 7 13 4 7 - - 0.2
25/06:00am 4.7 2.1 4.1 96 0.3 SSE 7 13 4 7 - - 0.2
25/05:50am 4.7 2.3 4.1 96 0.3 S 6 11 3 6 - - 0.2
25/05:40am 4.7 2.1 4.1 96 0.3 S 7 17 4 9 - - 0.2
25/05:30am 4.8 2.2 4.1 95 0.3 S 7 17 4 9 - - 0.0
25/05:20am 4.8 1.8 4.1 95 0.3 S 9 17 5 9 - - 0.0
25/05:10am 5.0 2.4 4.3 95 0.3 S 7 13 4 7 - - 0.0
25/05:00am 5.0 2.4 4.3 95 0.3 S 7 15 4 8 - - 0.0
25/04:50am 5.0 2.4 4.4 96 0.3 S 7 15 4 8 - - 0.0
25/04:40am 5.0 2.4 4.3 95 0.3 S 7 17 4 9 - - 0.0
25/04:30am 5.1 2.7 4.4 95 0.3 S 6 11 3 6 - - 0.0
25/04:20am 5.2 2.8 4.5 95 0.3 S 6 9 3 5 - - 0.0
25/04:10am 5.1 2.7 4.4 95 0.3 SSE 6 9 3 5 - - 0.0
25/04:00am 5.0 2.6 4.3 95 0.3 SSE 6 11 3 6 - - 0.0
25/03:50am 5.0 2.4 4.3 95 0.3 S 7 13 4 7 - - 0.0
25/03:40am 4.9 1.9 4.3 96 0.3 S 9 13 5 7 - - 0.0
25/03:30am 5.0 2.4 4.3 95 0.3 S 7 13 4 7 - - 0.0
25/03:20am 5.1 2.5 4.4 95 0.3 SSE 7 13 4 7 - - 0.0
25/03:10am 5.2 2.8 4.5 95 0.3 SSE 6 13 3 7 - - 0.0
25/03:00am 5.2 2.3 4.5 95 0.3 SSE 9 15 5 8 - - 0.0
25/02:50am 5.4 2.9 4.7 95 0.3 SSE 7 15 4 8 - - 0.0
25/02:40am 5.5 3.0 4.8 95 0.3 S 7 15 4 8 - - 0.0
25/02:30am 5.8 3.9 5.1 95 0.3 S 4 11 2 6 - - 0.0
25/02:20am 6.0 4.2 5.3 95 0.3 S 4 7 2 4 - - 0.0
25/02:10am 6.0 4.2 5.3 95 0.3 S 4 6 2 3 - - 0.0
25/02:00am 6.0 4.2 5.3 95 0.3 S 4 7 2 4 - - 0.0
25/01:50am 5.8 3.0 5.1 95 0.3 SE 9 15 5 8 - - 0.0
25/01:40am 5.8 3.6 5.1 95 0.3 SE 6 13 3 7 - - 0.0
25/01:30am 5.7 2.9 5.0 95 0.3 SSE 9 17 5 9 - - 0.0
25/01:10am 5.7 2.8 4.9 95 0.4 SSE 9 22 5 12 - - 0.0
25/01:00am 5.5 3.2 4.8 95 0.3 SSE 6 13 3 7 - - 0.0
25/12:50am 5.6 3.7 4.9 95 0.3 SSE 4 7 2 4 - - 0.0
25/12:40am 5.6 3.3 4.8 95 0.4 S 6 11 3 6 - - 0.0
25/12:30am 5.7 3.4 5.0 95 0.3 S 6 15 3 8 - - 0.0
25/12:20am 6.0 3.8 5.3 95 0.3 S 6 13 3 7 - - 0.0
25/12:10am 6.0 3.8 5.3 95 0.3 S 6 11 3 6 - - 0.0
25/12:00am 5.9 3.7 5.2 95 0.3 S 6 13 3 7 - - 0.0
 
Date/Time
EDT
Temp
°C
App
Temp
°C
Dew
Point
°C
Rel
Hum
%
Delta-T
°C
Wind Press
QNH
hPa
Press
MSL
hPa
Rain since
9am
mm
Dir  Spd
km/h
Gust
km/h
Spd
kts
Gust
kts
24/11:50pm 5.9 3.7 5.3 96 0.3 S 6 13 3 7 - - 0.0
24/11:40pm 6.1 4.3 5.4 95 0.3 S 4 7 2 4 - - 0.0
24/11:30pm 6.0 3.8 5.3 95 0.3 S 6 17 3 9 - - 0.0
24/11:20pm 6.3 4.2 5.6 95 0.3 SSW 6 13 3 7 - - 0.0
24/11:10pm 6.6 4.5 5.8 95 0.4 SSW 6 15 3 8 - - 0.0
24/11:00pm 6.8 4.8 6.1 95 0.3 SW 6 13 3 7 - - 0.0
24/10:50pm 6.8 4.8 6.1 95 0.3 SSW 6 15 3 8 - - 0.0
24/10:40pm 7.1 5.1 6.4 95 0.3 WSW 6 15 3 8 - - 0.0
24/10:30pm 7.2 5.3 6.5 95 0.3 SSW 6 13 3 7 - - 0.0
24/10:20pm 7.2 5.2 6.4 95 0.4 SSW 6 17 3 9 - - 0.0
24/10:10pm 7.4 5.9 6.7 95 0.3 SW 4 11 2 6 - - 0.0
24/10:00pm 7.4 5.5 6.6 95 0.4 SSW 6 17 3 9 - - 0.0
24/09:50pm 7.6 5.7 6.9 95 0.4 SSW 6 13 3 7 - - 0.0
24/09:40pm 7.5 5.6 6.8 95 0.3 SW 6 13 3 7 - - 0.0
24/09:30pm 7.7 5.9 7.0 95 0.4 SW 6 13 3 7 - - 0.0
24/09:20pm 7.4 5.5 6.7 95 0.3 SSW 6 13 3 7 - - 0.0
24/09:10pm 7.7 5.8 6.8 94 0.5 SSW 6 13 3 7 - - 0.0
24/09:00pm 7.6 5.5 6.8 95 0.4 SSW 7 15 4 8 - - 0.0
24/08:50pm 7.8 5.8 7.1 95 0.4 SW 7 17 4 9 - - 0.0
24/08:40pm 7.8 5.8 7.1 95 0.4 SSW 7 17 4 9 - - 0.0
24/08:30pm 7.9 5.5 7.1 95 0.4 SSW 9 20 5 11 - - 0.0
24/08:20pm 7.9 5.5 7.1 95 0.4 SW 9 19 5 10 - - 0.0
24/08:10pm 8.0 5.3 7.2 95 0.4 SSW 11 24 6 13 - - 0.0
24/08:00pm 8.1 5.4 7.3 95 0.4 SSW 11 22 6 12 - - 0.0
24/07:50pm 8.1 5.0 7.4 95 0.4 SSW 13 26 7 14 - - 0.0
24/07:40pm 8.3 5.3 7.5 95 0.4 SW 13 28 7 15 - - 0.0
24/07:30pm 8.3 5.3 7.5 95 0.4 SSW 13 26 7 14 - - 0.0
24/07:20pm 8.3 5.3 7.5 95 0.4 SSW 13 26 7 14 - - 0.0
24/07:10pm 8.4 5.0 7.6 95 0.4 SW 15 30 8 16 - - 0.0
24/07:00pm 8.5 5.1 7.7 95 0.4 SSW 15 30 8 16 - - 0.0
24/06:50pm 8.6 4.8 7.7 94 0.5 SW 17 30 9 16 - - 0.0
24/06:40pm 8.6 4.8 7.7 94 0.5 SW 17 32 9 17 - - 0.0
24/06:30pm 8.7 4.6 7.8 94 0.5 SSW 19 33 10 18 - - 0.0
24/06:20pm 8.8 4.7 7.9 94 0.5 SSW 19 35 10 19 - - 0.0
24/06:10pm 8.8 5.1 8.0 95 0.4 SSW 17 35 9 19 - - 0.0
24/06:00pm 9.0 5.0 8.1 94 0.5 SSW 19 32 10 17 - - 0.0
24/05:50pm 9.2 5.6 8.3 94 0.5 SSW 17 33 9 18 - - 0.0
24/05:40pm 9.5 6.0 8.6 94 0.5 SW 17 33 9 18 - - 0.0
24/05:30pm 9.6 6.5 8.7 94 0.5 SW 15 32 8 17 - - 0.0
24/05:10pm 9.9 6.5 9.0 94 0.5 SW 17 30 9 16 - - 0.0
24/05:00pm 10.1 7.1 9.1 93 0.5 SW 15 32 8 17 - - 0.0
24/04:50pm 10.3 7.3 9.3 93 0.5 SW 15 28 8 15 - - 0.0
24/04:40pm 10.4 7.1 9.4 93 0.5 SSW 17 30 9 16 - - 0.0
24/04:30pm 10.5 7.5 9.4 93 0.6 SW 15 26 8 14 - - 0.0
24/04:20pm 10.8 7.9 9.7 93 0.6 SW 15 32 8 17 - - 0.0
24/04:10pm 10.9 8.0 9.7 92 0.7 SW 15 30 8 16 - - 0.0
24/04:00pm 11.0 8.1 9.8 92 0.7 SSW 15 32 8 17 - - 0.0
24/03:50pm 11.1 8.3 9.9 92 0.7 SW 15 32 8 17 - - 0.0
24/03:40pm 11.4 8.6 10.1 92 0.7 SSW 15 28 8 15 - - 0.0
24/03:30pm 12.0 9.3 10.5 90 0.8 SW 15 32 8 17 - - 0.0
24/03:20pm 12.6 9.9 10.4 86 1.2 WSW 15 33 8 18 - - 0.0
24/03:10pm 12.8 10.1 10.4 85 1.3 WSW 15 30 8 16 - - 0.0
24/03:00pm 13.2 10.9 10.5 84 1.5 SW 13 30 7 16 - - 0.0
24/02:50pm 13.5 10.8 10.5 82 1.7 WSW 15 32 8 17 - - 0.0
24/02:40pm 15.0 13.2 10.8 76 2.4 SW 11 26 6 14 - - 0.0
24/02:30pm 15.1 12.9 10.9 76 2.4 SW 13 26 7 14 - - 0.0
24/02:20pm 15.5 13.4 11.0 74 2.6 WSW 13 30 7 16 - - 0.0
24/02:10pm 15.2 13.0 10.9 75 2.4 WSW 13 26 7 14 - - 0.0
24/02:00pm 15.2 13.1 11.0 76 2.4 SW 13 24 7 13 - - 0.0
24/01:50pm 16.0 13.5 11.0 72 2.9 SW 15 28 8 15 - - 0.0
24/01:40pm 16.8 15.1 11.1 69 3.3 SW 11 20 6 11 - - 0.0
24/01:30pm 17.4 16.4 11.0 66 3.7 SSW 7 26 4 14 - - 0.0
24/01:20pm 17.7 16.8 11.3 66 3.7 SSW 7 17 4 9 - - 0.0
24/01:10pm 16.2 14.8 11.0 71 3.0 SSW 9 19 5 10 - - 0.0
24/01:00pm 17.3 15.9 11.0 66 3.6 S 9 20 5 11 - - 0.0
24/12:50pm 15.7 14.2 10.7 72 2.8 S 9 17 5 9 - - 0.0
24/12:40pm 15.8 14.8 11.0 73 2.7 S 7 15 4 8 - - 0.0
24/12:30pm 16.4 15.3 10.8 69 3.2 S 7 15 4 8 - - 0.0
24/12:20pm 16.9 16.1 11.0 68 3.4 S 6 13 3 7 - - 0.0
24/12:10pm 14.4 13.2 10.3 76 2.3 S 7 17 4 9 - - 0.0
24/12:00pm 15.2 14.2 10.4 73 2.7 SSW 6 13 3 7 - - 0.0
24/11:50am 16.3 15.7 10.4 68 3.3 E 4 7 2 4 - - 0.0
24/11:40am 15.3 14.8 10.9 75 2.5 NNW 4 7 2 4 - - 0.0
24/11:30am 13.9 12.8 10.1 78 2.1 W 6 9 3 5 - - 0.0
24/11:20am 13.6 12.6 10.4 81 1.8 SSE 6 13 3 7 - - 0.0
24/11:10am 13.6 12.4 9.6 77 2.2 SE 6 11 3 6 - - 0.0
24/11:00am 13.0 12.2 9.8 81 1.8 E 4 9 2 5 - - 0.0
24/10:50am 12.6 11.8 9.8 83 1.5 NE 4 7 2 4 - - 0.0
24/10:40am 12.0 11.3 10.2 89 1.0 E 4 11 2 6 - - 0.0
24/10:30am 11.5 10.3 9.6 88 1.0 ESE 6 9 3 5 - - 0.0
24/10:20am 11.2 10.0 9.6 90 0.9 E 6 9 3 5 - - 0.0
24/10:10am 11.1 10.0 9.9 92 0.7 E 6 11 3 6 - - 0.0
24/10:00am 11.5 10.5 10.4 93 0.6 ENE 6 11 3 6 - - 0.0
24/09:50am 10.6 9.4 9.7 94 0.5 ENE 6 13 3 7 - - 0.0
24/09:40am 10.7 9.4 9.9 95 0.4 E 7 15 4 8 - - 0.0
24/09:30am 10.6 9.5 9.8 95 0.4 E 6 9 3 5 - - 0.0
24/09:20am 10.5 9.7 9.7 95 0.4 E 4 9 2 5 - - 0.0
24/09:10am 10.5 9.1 9.7 95 0.4 E 7 11 4 6 - - 0.0
24/09:00am 10.2 9.0 9.4 95 0.4 E 6 11 3 6 - - 0.0
24/08:50am 10.3 9.1 9.6 95 0.4 E 6 9 3 5 - - 0.0
24/08:40am 10.1 8.8 9.2 94 0.5 E 6 9 3 5 - - 0.0
24/08:30am 10.1 8.6 9.3 95 0.4 E 7 11 4 6 - - 0.0
24/08:20am 10.0 8.5 9.2 95 0.4 E 7 9 4 5 - - 0.0
24/08:10am 9.7 8.1 8.9 95 0.4 E 7 11 4 6 - - 0.0
24/08:00am 9.7 8.1 8.8 94 0.5 ESE 7 11 4 6 - - 0.0
24/07:50am 9.6 8.0 8.7 94 0.5 ESE 7 11 4 6 - - 0.0
24/07:40am 9.5 7.5 8.6 94 0.5 ESE 9 13 5 7 - - 0.0
24/07:30am 9.5 7.5 8.6 94 0.5 ESE 9 13 5 7 - - 0.0
24/07:20am 9.4 7.0 8.5 94 0.5 ESE 11 15 6 8 - - 0.0
24/07:10am 9.3 6.8 8.4 94 0.5 ESE 11 15 6 8 - - 0.0
24/07:00am 9.3 6.8 8.4 94 0.5 ESE 11 15 6 8 - - 0.0
24/06:50am 9.3 6.8 8.4 94 0.5 E 11 13 6 7 - - 0.0
24/06:40am 9.3 7.2 8.4 94 0.5 E 9 13 5 7 - - 0.0
24/06:30am 9.3 7.2 8.4 94 0.5 ESE 9 11 5 6 - - 0.0
24/06:10am 9.4 7.3 8.4 93 0.5 ESE 9 11 5 6 - - 0.0
24/06:00am 9.3 7.2 8.4 94 0.5 ESE 9 11 5 6 - - 0.0
24/05:50am 9.4 7.7 8.4 93 0.5 ESE 7 11 4 6 - - 0.0
24/05:40am 9.5 8.0 8.4 93 0.6 ESE 6 9 3 5 - - 0.0
24/05:30am 9.5 8.0 8.4 93 0.6 ESE 6 9 3 5 - - 0.0
24/05:20am 9.9 8.3 8.8 93 0.6 ESE 7 9 4 5 - - 0.0
24/05:10am 10.0 8.6 8.9 93 0.6 SE 6 7 3 4 - - 0.0
24/05:00am 10.1 9.1 9.0 93 0.6 SE 4 9 2 5 - - 0.0
24/04:50am 10.3 9.0 9.1 92 0.6 SE 6 7 3 4 - - 0.0
24/04:40am 10.4 8.9 9.1 92 0.7 ESE 7 11 4 6 - - 0.0
24/04:30am 10.4 9.1 9.1 92 0.7 SE 6 7 3 4 - - 0.0
24/04:20am 10.5 9.0 9.2 92 0.7 SSE 7 11 4 6 - - 0.0
24/04:10am 10.4 9.1 9.1 92 0.7 SE 6 9 3 5 - - 0.0
24/04:00am 10.4 8.8 8.9 90 0.8 ESE 7 13 4 7 - - 0.0
24/03:50am 10.5 8.9 8.9 90 0.9 ESE 7 11 4 6 - - 0.0
24/03:40am 10.5 9.0 9.0 90 0.8 ESE 7 11 4 6 - - 0.0
24/03:30am 10.6 9.1 9.2 91 0.8 ESE 7 11 4 6 - - 0.0
24/03:20am 10.8 9.4 9.5 92 0.7 E 7 9 4 5 - - 0.0
24/03:10am 10.6 8.7 9.2 91 0.8 ESE 9 13 5 7 - - 0.0
24/03:00am 10.4 8.9 9.2 92 0.6 ESE 7 11 4 6 - - 0.0
24/02:50am 10.3 8.4 9.1 92 0.6 ESE 9 11 5 6 - - 0.0
24/02:40am 10.2 8.3 9.0 92 0.6 ESE 9 13 5 7 - - 0.0
24/02:30am 10.2 8.3 9.0 92 0.6 ESE 9 15 5 8 - - 0.0
24/02:20am 10.1 7.8 8.9 92 0.6 ESE 11 13 6 7 - - 0.0
24/02:10am 10.1 8.5 8.8 92 0.7 ESE 7 11 4 6 - - 0.0
24/02:00am 10.3 8.4 9.0 92 0.7 ESE 9 11 5 6 - - 0.0
24/01:50am 10.2 8.2 8.8 91 0.7 ESE 9 13 5 7 - - 0.0
24/01:40am 10.7 8.0 8.9 89 1.0 ESE 13 17 7 9 - - 0.0
24/01:30am 10.9 7.8 9.0 88 1.0 ESE 15 19 8 10 - - 0.0
24/01:20am 10.9 8.2 9.0 88 1.0 ESE 13 17 7 9 - - 0.0
24/01:10am 10.6 7.9 8.9 89 0.9 ESE 13 17 7 9 - - 0.0
24/01:00am 10.7 8.4 9.1 90 0.9 SE 11 15 6 8 - - 0.0
24/12:50am 10.8 8.9 9.2 90 0.9 SE 9 13 5 7 - - 0.0
24/12:40am 10.8 8.6 9.3 90 0.8 SE 11 15 6 8 - - 0.0
24/12:30am 10.9 8.3 9.5 91 0.8 SE 13 17 7 9 - - 0.0
24/12:20am 10.7 8.6 9.6 93 0.6 SE 11 17 6 9 - - 0.0
24/12:10am 10.3 8.1 9.3 93 0.5 SE 11 15 6 8 - - 0.0
24/12:00am 10.3 8.1 9.4 94 0.5 SE 11 17 6 9 - - 0.0
 
Date/Time
EDT
Temp
°C
App
Temp
°C
Dew
Point
°C
Rel
Hum
%
Delta-T
°C
Wind Press
QNH
hPa
Press
MSL
hPa
Rain since
9am
mm
Dir  Spd
km/h
Gust
km/h
Spd
kts
Gust
kts
23/11:50pm 10.4 8.6 9.4 93 0.5 SSE 9 15 5 8 - - 0.0
23/11:40pm 10.7 9.0 9.7 93 0.5 SE 9 15 5 8 - - 0.0
23/11:30pm 10.9 9.2 10.0 94 0.5 SSE 9 13 5 7 - - 0.0
23/11:20pm 11.1 9.5 10.1 94 0.5 SSE 9 13 5 7 - - 0.0
23/11:10pm 11.0 9.0 10.0 93 0.5 SSE 11 15 6 8 - - 0.0
23/11:00pm 10.9 9.2 9.8 93 0.6 SE 9 13 5 7 - - 0.0
23/10:50pm 10.5 9.3 9.5 93 0.5 SSW 6 11 3 6 - - 0.0
23/10:40pm 10.7 9.3 9.7 93 0.5 S 7 11 4 6 - - 0.0
23/10:30pm 10.9 9.2 9.9 93 0.5 SSE 9 13 5 7 - - 0.0
23/10:20pm 10.8 8.7 9.7 93 0.6 S 11 15 6 8 - - 0.0
23/10:10pm 10.9 9.2 9.8 93 0.6 S 9 15 5 8 - - 0.0
23/10:00pm 11.0 9.9 10.0 93 0.5 SSW 6 13 3 7 - - 0.0
23/09:50pm 11.0 9.7 9.9 93 0.6 SW 7 11 4 6 - - 0.0
23/09:40pm 10.9 9.2 9.8 93 0.6 SW 9 13 5 7 - - 0.0
23/09:30pm 11.0 9.3 9.8 92 0.7 SW 9 13 5 7 - - 0.0
23/09:20pm 11.3 9.6 9.9 91 0.8 WSW 9 13 5 7 - - 0.0
23/09:10pm 11.9 10.3 10.1 89 1.0 SW 9 13 5 7 - - 0.0
23/09:00pm 13.0 11.8 10.2 83 1.6 WSW 7 15 4 8 - - 0.0
23/08:50pm 12.8 11.5 10.1 84 1.5 SW 7 15 4 8 - - 0.0
23/08:40pm 12.5 10.1 10.2 86 1.3 SSW 13 20 7 11 - - 0.0
23/08:30pm 12.6 10.3 10.3 86 1.3 SW 13 22 7 12 - - 0.0
23/08:20pm 12.9 10.2 10.2 84 1.5 SW 15 24 8 13 - - 0.0
23/08:10pm 13.2 10.5 10.2 82 1.7 SW 15 26 8 14 - - 0.0
23/08:00pm 13.7 11.7 10.3 80 1.9 SW 11 22 6 12 - - 0.0
23/07:50pm 14.4 12.4 10.2 76 2.3 WSW 11 20 6 11 - - 0.0
23/07:40pm 15.3 13.0 10.3 72 2.8 WSW 13 22 7 12 - - 0.0
23/07:30pm 16.0 13.7 10.3 69 3.2 WSW 13 22 7 12 - - 0.0
23/07:20pm 16.6 14.2 10.1 65 3.7 WSW 13 26 7 14 - - 0.0
23/07:10pm 17.2 14.5 10.2 63 4.0 WSW 15 24 8 13 - - 0.0
23/07:00pm 17.9 15.2 10.2 60 4.4 WSW 15 26 8 14 - - 0.0
23/06:50pm 18.5 15.8 10.2 58 4.7 WSW 15 28 8 15 - - 0.0
23/06:40pm 19.4 17.0 10.2 55 5.3 WSW 13 22 7 12 - - 0.0
23/06:30pm 19.7 17.7 10.2 54 5.5 WSW 11 28 6 15 - - 0.0
23/06:20pm 20.2 18.2 10.0 52 5.9 WSW 11 28 6 15 - - 0.0
23/06:10pm 21.2 18.8 9.9 48 6.5 WSW 13 26 7 14 - - 0.0
23/06:00pm 21.7 19.2 9.8 46 6.9 WSW 13 28 7 15 - - 0.0
23/05:50pm 22.2 19.7 9.6 44 7.2 WSW 13 22 7 12 - - 0.0
23/05:40pm 23.0 20.4 9.3 41 7.9 WSW 13 24 7 13 - - 0.0
23/05:30pm 23.2 19.9 7.9 37 8.6 W 15 26 8 14 - - 0.0
23/05:20pm 24.1 21.9 9.5 39 8.5 WSW 11 26 6 14 - - 0.0
23/05:10pm 23.8 21.6 9.4 40 8.3 WSW 11 30 6 16 - - 0.0
23/05:00pm 25.3 22.9 8.6 34 9.6 WSW 11 24 6 13 - - 0.0
23/04:50pm 24.7 21.0 6.4 31 10.1 WSW 15 33 8 18 - - 0.0
23/04:40pm 25.4 22.2 5.1 27 11.0 W 11 24 6 13 - - 0.0
23/04:30pm 25.2 21.8 7.6 32 9.9 W 15 32 8 17 - - 0.0
23/04:20pm 26.9 23.0 5.5 25 11.7 WSW 15 37 8 20 - - 0.0
23/04:10pm 27.2 23.0 3.8 22 12.5 WSW 15 37 8 20 - - 0.0
23/04:00pm 27.4 21.9 2.0 19 13.2 WSW 20 44 11 24 - - 0.0
23/03:50pm 27.8 22.5 1.8 18 13.5 WSW 19 39 10 21 - - 0.0
23/03:40pm 26.6 18.6 1.4 19 12.9 W 33 63 18 34 - - 0.0
23/03:30pm 27.3 21.0 1.5 18 13.3 W 24 48 13 26 - - 0.0
23/03:20pm 27.2 21.2 1.3 18 13.3 WSW 22 46 12 25 - - 0.0
23/03:10pm 27.0 20.2 1.1 18 13.2 W 26 56 14 30 - - 0.0
23/03:00pm 26.8 20.7 0.4 18 13.3 W 22 54 12 29 - - 0.0
23/02:50pm 26.5 18.9 0.3 18 13.1 W 30 56 16 30 - - 0.0
23/02:40pm 26.0 17.4 0.2 18 12.8 W 35 70 19 38 - - 0.0
23/02:30pm 26.7 19.7 -0.4 17 13.4 W 26 56 14 30 - - 0.0
23/02:20pm 25.9 17.5 -1.1 17 13.1 W 33 67 18 36 - - 0.0
23/02:10pm 26.4 18.9 -1.6 16 13.5 W 28 59 15 32 - - 0.0
23/02:00pm 26.4 18.5 -1.9 15 13.6 W 30 65 16 35 - - 0.0
23/01:50pm 25.5 15.0 -2.5 15 13.2 W 43 69 23 37 - - 0.0
23/01:40pm 26.1 17.8 -1.4 16 13.3 W 32 61 17 33 - - 0.0
23/01:30pm 26.2 18.0 -0.8 17 13.2 W 32 65 17 35 - - 0.0
23/01:20pm 25.7 17.9 -1.0 17 13.0 W 30 65 16 35 - - 0.0
23/01:10pm 26.7 20.9 0.0 17 13.3 WSW 20 52 11 28 - - 0.0
23/01:00pm 26.0 19.0 -0.6 17 13.1 W 26 44 14 24 - - 0.0
23/12:50pm 26.1 19.6 0.0 18 13.0 WSW 24 56 13 30 - - 0.0
23/12:40pm 26.1 19.5 -0.4 17 13.1 W 24 59 13 32 - - 0.0
23/12:30pm 26.8 21.8 1.1 19 13.1 WSW 17 43 9 23 - - 0.0
23/12:20pm 25.6 18.4 0.5 19 12.5 W 28 57 15 31 - - 0.0
23/12:10pm 24.7 16.6 0.0 19 12.1 W 32 61 17 33 - - 0.0
23/12:00pm 24.4 16.4 0.5 20 11.8 W 32 61 17 33 - - 0.0
23/11:50am 24.0 16.0 0.3 21 11.7 W 32 59 17 32 - - 0.0
23/11:40am 23.7 14.3 0.2 21 11.5 W 39 69 21 37 - - 0.0
23/11:30am 23.8 15.8 0.5 21 11.5 W 32 54 17 29 - - 0.0
23/11:20am 23.4 16.1 -0.1 21 11.4 WNW 28 56 15 30 - - 0.0
23/11:10am 23.3 16.8 0.2 21 11.3 W 24 46 13 25 - - 0.0
23/11:00am 23.4 16.7 1.2 23 11.1 W 26 54 14 29 - - 0.0
23/10:50am 23.1 17.6 0.5 22 11.1 W 19 46 10 25 - - 0.0
23/10:40am 22.6 17.2 1.3 24 10.6 WNW 19 41 10 22 - - 0.0
23/10:30am 22.9 17.6 1.6 24 10.7 W 19 37 10 20 - - 0.0
23/10:20am 22.1 17.1 1.5 25 10.2 WNW 17 30 9 16 - - 0.0
23/10:10am 21.8 17.6 1.8 26 10.0 WNW 13 24 7 13 - - 0.0
23/10:00am 21.5 16.6 2.0 27 9.7 NW 17 33 9 18 - - 0.0
23/09:50am 20.9 15.4 2.1 28 9.4 WNW 20 35 11 19 - - 0.0
23/09:40am 20.7 15.3 2.2 29 9.2 NW 20 35 11 19 - - 0.0
23/09:30am 20.4 14.6 2.3 30 9.0 NW 22 35 12 19 - - 0.0
23/09:20am 19.9 14.0 1.9 30 8.9 WNW 22 33 12 18 - - 0.0
23/09:10am 19.4 13.3 2.8 33 8.3 WNW 24 33 13 18 - - 0.0
23/09:00am 19.2 12.7 2.8 33 8.2 WNW 26 39 14 21 - - 0.0
23/08:50am 19.0 11.8 2.8 34 8.1 WNW 30 39 16 21 - - 0.0
23/08:40am 18.7 11.2 3.4 36 7.7 WNW 32 44 17 24 - - 0.0
23/08:30am 18.5 11.4 3.8 37 7.4 WNW 30 44 16 24 - - 0.0
23/08:20am 18.4 11.4 4.3 39 7.2 WNW 30 41 16 22 - - 0.0
23/08:10am 18.3 11.0 4.4 39 7.1 WNW 32 46 17 25 - - 0.0
23/08:00am 18.1 10.8 4.7 41 6.9 WNW 32 43 17 23 - - 0.0
23/07:50am 18.1 11.2 4.6 41 6.9 WNW 30 41 16 22 - - 0.0
23/07:40am 18.4 10.5 4.4 39 7.2 WNW 35 54 19 29 - - 0.0
23/07:30am 18.4 10.5 4.3 39 7.2 WNW 35 50 19 27 - - 0.0
23/07:20am 18.5 10.9 3.9 38 7.4 WNW 33 48 18 26 - - 0.0
23/07:10am 18.6 11.2 3.9 37 7.5 WNW 32 52 17 28 - - 0.0
23/07:00am 18.6 11.1 3.6 37 7.6 WNW 32 50 17 27 - - 0.0
23/06:50am 18.7 11.5 3.2 35 7.8 WNW 30 48 16 26 - - 0.0
23/06:40am 18.7 11.5 3.0 35 7.8 WNW 30 44 16 24 - - 0.0
23/06:30am 18.8 11.6 2.8 34 8.0 WNW 30 44 16 24 - - 0.0
23/06:20am 18.9 12.4 2.5 33 8.1 NW 26 41 14 22 - - 0.0
23/06:10am 18.8 13.4 2.3 33 8.1 NW 20 37 11 20 - - 0.0
23/06:00am 19.1 13.7 2.2 32 8.3 NNW 20 37 11 20 - - 0.0
23/05:50am 19.2 13.3 1.9 31 8.5 NNW 22 35 12 19 - - 0.0
23/05:40am 19.2 13.7 1.6 31 8.6 NNW 20 41 11 22 - - 0.0
23/05:30am 19.2 13.6 1.0 29 8.8 NNW 20 37 11 20 - - 0.0
23/05:20am 19.3 13.8 0.3 28 9.0 NNW 19 33 10 18 - - 0.0
23/05:10am 19.3 13.5 -0.2 27 9.2 NNW 20 35 11 19 - - 0.0
23/05:00am 19.4 13.5 -0.6 26 9.4 NNW 20 35 11 19 - - 0.0
23/04:50am 19.6 12.9 -0.8 25 9.5 NW 24 41 13 22 - - 0.0
23/04:40am 19.6 13.7 -0.7 25 9.5 NW 20 33 11 18 - - 0.0
23/04:30am 19.5 13.3 -0.4 26 9.4 NW 22 41 12 22 - - 0.0
23/04:20am 19.6 13.4 -0.4 26 9.4 NW 22 39 12 21 - - 0.0
23/04:10am 19.6 13.4 -0.2 26 9.3 NW 22 39 12 21 - - 0.0
23/04:00am 19.5 12.6 -0.1 27 9.3 NW 26 44 14 24 - - 0.0
23/03:50am 19.4 12.5 0.0 27 9.2 NW 26 43 14 23 - - 0.0
23/03:40am 19.2 13.4 0.2 28 9.0 NNW 20 39 11 21 - - 0.0
23/03:30am 19.2 13.4 0.2 28 9.0 NNW 20 35 11 19 - - 0.0
23/03:20am 19.1 13.9 0.4 28 8.9 N 17 30 9 16 - - 0.0
23/03:10am 19.2 14.4 0.4 28 9.0 N 15 28 8 15 - - 0.0
23/02:50am 19.2 14.4 0.4 28 9.0 N 15 32 8 17 - - 0.0
23/02:40am 19.1 13.9 0.4 28 8.9 N 17 30 9 16 - - 0.0
23/02:30am 19.3 14.1 0.4 28 9.0 N 17 33 9 18 - - 0.0
23/02:20am 19.4 13.8 0.2 27 9.1 N 19 33 10 18 - - 0.0
23/02:10am 19.4 13.8 0.2 27 9.1 N 19 32 10 17 - - 0.0
23/02:00am 19.3 13.7 0.2 27 9.1 N 19 33 10 18 - - 0.0
23/01:50am 19.3 13.7 0.1 27 9.1 NNW 19 33 10 18 - - 0.0
23/01:40am 19.4 13.8 0.0 27 9.2 N 19 33 10 18 - - 0.0
23/01:30am 19.3 13.7 0.1 27 9.1 N 19 35 10 19 - - 0.0
23/01:20am 19.3 14.1 0.1 27 9.1 N 17 35 9 19 - - 0.0
23/01:10am 19.3 14.1 0.0 27 9.1 N 17 26 9 14 - - 0.0
23/01:00am 19.4 13.8 0.1 27 9.2 NNW 19 35 10 19 - - 0.0
23/12:50am 19.4 13.6 0.0 27 9.2 N 20 32 11 17 - - 0.0
23/12:40am 19.3 13.7 0.0 27 9.1 NNW 19 35 10 19 - - 0.0
23/12:30am 19.5 13.3 0.0 27 9.2 N 22 39 12 21 - - 0.0
23/12:20am 19.6 13.4 -0.1 26 9.3 N 22 37 12 20 - - 0.0
23/12:10am 19.8 13.2 -0.2 26 9.5 NNW 24 39 13 21 - - 0.0

Other Formats:

Comma delimited format used in spreadsheet applications
http://www.bom.gov.au/fwo/IDV60801/IDV60801.99052.axf

JavaScript Object Notation format (JSON) in row-major order
http://www.bom.gov.au/fwo/IDV60801/IDV60801.99052.json